Time;durP1;ratioP1;P1;durP2;ratioP2;P2;SDS_P1;SDS_P2;PMS_P1;PMS_P2;Temp;Humidity;BMP_temperature;BMP_pressure;BME280_temperature;BME280_humidity;BME280_pressure;Samples;Min_cycle;Max_cycle;Signal;HPM_P1;HPM_P2
2022/11/16 00:01:31;;;;;;;6.70;4.00;;;;;;;5.34;100.00;98904.81;5152000;27;20047;-47
2022/11/16 00:03:59;;;;;;;6.88;4.55;;;;;;;5.22;100.00;98915.63;5152204;27;20556;-48
2022/11/16 00:06:27;;;;;;;7.30;4.55;;;;;;;5.14;100.00;98911.09;5152155;27;20145;-48
2022/11/16 00:11:54;;;;;;;6.53;4.30;;;;;;;5.22;100.00;98907.47;5088094;28;20044;-48
2022/11/16 00:14:22;;;;;;;6.93;4.07;;;;;;;5.26;100.00;98911.13;5137319;27;20190;-49
2022/11/16 00:16:49;;;;;;;8.70;4.35;;;;;;;5.27;100.00;98912.72;5151868;27;20149;-47
2022/11/16 00:19:15;;;;;;;8.65;4.60;;;;;;;5.06;100.00;98904.59;5151755;27;20055;-48
2022/11/16 00:21:42;;;;;;;6.15;4.10;;;;;;;5.18;100.00;98887.53;5151836;27;20115;-48
2022/11/16 00:24:12;;;;;;;6.85;3.60;;;;;;;5.14;100.00;98898.28;5151676;27;20597;-47
2022/11/16 00:26:38;;;;;;;12.35;4.32;;;;;;;5.08;100.00;98899.63;5151571;27;20421;-47
2022/11/16 00:29:04;;;;;;;7.22;4.03;;;;;;;5.29;100.00;98898.78;5151586;27;20074;-49
2022/11/16 00:31:31;;;;;;;5.70;3.67;;;;;;;5.29;100.00;98920.53;5151496;27;20060;-47
2022/11/16 00:33:58;;;;;;;5.05;3.03;;;;;;;5.24;100.00;98932.41;5151768;27;20055;-47
2022/11/16 00:36:24;;;;;;;6.35;3.63;;;;;;;5.27;100.00;98926.31;5151490;27;20050;-46
2022/11/16 00:38:52;;;;;;;6.50;3.95;;;;;;;5.16;100.00;98934.09;5151456;27;20129;-48
2022/11/16 00:41:18;;;;;;;6.50;3.42;;;;;;;5.25;100.00;98931.28;5151539;27;20569;-47
2022/11/16 00:43:44;;;;;;;5.78;3.83;;;;;;;5.21;100.00;98924.13;5151477;27;20134;-47
2022/11/16 00:46:11;;;;;;;4.68;3.42;;;;;;;5.08;100.00;98926.00;5151479;27;20557;-48
2022/11/16 00:48:37;;;;;;;12.35;4.15;;;;;;;5.09;100.00;98927.59;5151264;27;20527;-50
2022/11/16 00:51:04;;;;;;;6.43;3.80;;;;;;;4.90;100.00;98934.31;5151382;27;20054;-47
2022/11/16 00:53:31;;;;;;;5.47;3.60;;;;;;;4.83;100.00;98935.97;5151520;27;20078;-46
2022/11/16 00:55:57;;;;;;;6.45;3.67;;;;;;;4.54;100.00;98934.13;5151251;27;20053;-47
2022/11/16 00:58:23;;;;;;;5.55;3.55;;;;;;;4.57;100.00;98917.97;5151201;27;20121;-46
2022/11/16 01:00:50;;;;;;;6.05;3.78;;;;;;;4.58;100.00;98907.91;5151066;27;20047;-46
2022/11/16 01:03:16;;;;;;;5.65;3.80;;;;;;;4.52;100.00;98896.44;5151186;27;20086;-47
2022/11/16 01:05:43;;;;;;;5.85;3.47;;;;;;;4.56;100.00;98894.63;5151144;27;20137;-49
2022/11/16 01:08:10;;;;;;;6.30;3.70;;;;;;;4.51;100.00;98891.34;5151019;27;20082;-46
2022/11/16 01:10:38;;;;;;;6.57;3.70;;;;;;;4.40;100.00;98889.03;5151020;27;20054;-46
2022/11/16 01:13:04;;;;;;;7.30;4.10;;;;;;;4.46;100.00;98890.44;5151041;27;20046;-50
2022/11/16 01:15:31;;;;;;;8.63;3.78;;;;;;;4.40;100.00;98880.88;5151223;27;20138;-49
2022/11/16 01:17:57;;;;;;;6.05;3.88;;;;;;;4.11;100.00;98884.44;5152913;27;20094;-47
2022/11/16 01:20:26;;;;;;;6.22;3.75;;;;;;;4.32;100.00;98851.09;5154519;27;20051;-48
2022/11/16 01:22:53;;;;;;;7.35;4.30;;;;;;;4.32;100.00;98853.81;5154663;27;20047;-48
2022/11/16 01:25:20;;;;;;;6.78;4.05;;;;;;;4.29;100.00;98862.59;5154592;27;20142;-48
2022/11/16 01:27:46;;;;;;;6.50;3.95;;;;;;;4.41;100.00;98851.81;5154421;27;20505;-50
2022/11/16 01:30:15;;;;;;;5.78;3.70;;;;;;;4.40;100.00;98837.47;5154787;27;20046;-48
2022/11/16 01:32:41;;;;;;;7.80;3.92;;;;;;;4.43;100.00;98854.97;5154641;27;20586;-46
2022/11/16 01:35:09;;;;;;;7.85;4.00;;;;;;;4.53;100.00;98848.34;5154382;27;20046;-46
2022/11/16 01:37:36;;;;;;;7.53;4.30;;;;;;;4.46;100.00;98854.31;5154476;27;20537;-47
2022/11/16 01:40:02;;;;;;;6.70;3.85;;;;;;;4.54;100.00;98853.47;5154446;27;20050;-49
2022/11/16 01:42:30;;;;;;;9.35;4.68;;;;;;;4.57;100.00;98836.53;5154391;27;20507;-47
2022/11/16 01:45:06;;;;;;;6.07;4.00;;;;;;;4.48;100.00;98844.72;5154464;27;20046;-50
2022/11/16 01:47:32;;;;;;;7.82;4.43;;;;;;;4.62;100.00;98839.00;5154353;27;20463;-51
2022/11/16 01:50:03;;;;;;;6.45;4.10;;;;;;;4.53;100.00;98830.16;5154235;27;20054;-49
2022/11/16 01:52:33;;;;;;;7.15;4.15;;;;;;;4.57;100.00;98820.22;5154149;27;20114;-46
2022/11/16 01:55:00;;;;;;;8.20;3.50;;;;;;;4.33;100.00;98806.53;5154067;27;20043;-47
2022/11/16 01:57:31;;;;;;;5.18;3.50;;;;;;;4.71;100.00;98790.88;5154399;27;20054;-50
2022/11/16 02:00:03;;;;;;;5.05;3.40;;;;;;;4.44;100.00;98810.44;5153814;27;20425;-49
2022/11/16 02:02:29;;;;;;;5.00;3.22;;;;;;;4.63;100.00;98801.78;5154214;27;20050;-46
2022/11/16 02:04:57;;;;;;;6.40;3.50;;;;;;;4.59;100.00;98798.16;5153925;27;20137;-47
2022/11/16 02:10:34;;;;;;;5.50;2.63;;;;;;;4.19;100.00;98796.75;5152811;27;20078;-53
2022/11/16 02:13:13;;;;;;;5.13;2.92;;;;;;;4.48;100.00;98771.44;5153896;27;20129;-50
2022/11/16 02:15:45;;;;;;;3.72;2.22;;;;;;;4.47;100.00;98774.50;5153664;27;20050;-50
2022/11/16 02:18:20;;;;;;;3.05;2.58;;;;;;;4.58;100.00;98783.81;5153767;27;20042;-48
2022/11/16 02:20:57;;;;;;;4.28;2.70;;;;;;;4.63;100.00;98786.31;5153566;27;20110;-47
2022/11/16 02:24:10;;;;;;;4.00;2.15;;;;;;;4.21;100.00;98785.56;5153765;27;20064;-47
2022/11/16 02:26:55;;;;;;;4.22;2.28;;;;;;;4.52;100.00;98773.47;5153745;27;20085;-47
2022/11/16 02:29:28;;;;;;;4.95;2.20;;;;;;;4.58;100.00;98772.94;5152774;27;20054;-48
2022/11/16 02:32:01;;;;;;;4.25;1.80;;;;;;;4.12;100.00;98772.06;5153537;27;20108;-50
2022/11/16 02:34:33;;;;;;;2.97;1.90;;;;;;;4.21;100.00;98758.44;5153987;27;20494;-46
2022/11/16 02:37:04;;;;;;;3.15;2.10;;;;;;;4.38;100.00;98744.72;5153546;27;20137;-47
2022/11/16 02:39:33;;;;;;;2.38;1.70;;;;;;;4.24;100.00;98744.22;5153686;27;20043;-48
2022/11/16 02:42:02;;;;;;;6.32;1.80;;;;;;;4.05;100.00;98755.53;5153413;27;20042;-46
2022/11/16 02:44:32;;;;;;;1.75;1.63;;;;;;;4.26;100.00;98752.78;5153657;27;20137;-47
2022/11/16 02:47:02;;;;;;;3.10;1.60;;;;;;;4.14;100.00;98761.69;5153237;27;20152;-47
2022/11/16 02:49:30;;;;;;;1.25;1.15;;;;;;;4.26;100.00;98763.66;5153384;27;20092;-49
2022/11/16 02:51:58;;;;;;;1.90;1.50;;;;;;;3.98;100.00;98774.25;5153597;27;20053;-49
2022/11/16 02:54:24;;;;;;;1.80;1.45;;;;;;;3.76;100.00;98794.34;5153536;27;20580;-48
2022/11/16 02:56:54;;;;;;;2.05;1.27;;;;;;;3.98;100.00;98793.25;5153682;27;20146;-48
2022/11/16 02:59:23;;;;;;;1.40;1.20;;;;;;;3.93;100.00;98817.84;5152992;27;20560;-50
2022/11/16 03:01:56;;;;;;;1.20;1.10;;;;;;;3.59;100.00;98816.91;5153235;27;20051;-49
2022/11/16 03:04:27;;;;;;;1.30;1.20;;;;;;;3.99;100.00;98798.31;5153134;27;20043;-47
2022/11/16 03:06:58;;;;;;;1.45;1.35;;;;;;;4.16;100.00;98813.69;5153072;27;20047;-49
2022/11/16 03:09:29;;;;;;;3.75;1.38;;;;;;;4.16;100.00;98834.59;5153207;27;20042;-48
2022/11/16 03:11:59;;;;;;;1.65;1.55;;;;;;;3.91;100.00;98849.94;5153018;27;20141;-49
2022/11/16 03:14:32;;;;;;;4.88;2.00;;;;;;;4.00;100.00;98826.28;5152793;27;20047;-47
2022/11/16 03:17:01;;;;;;;1.85;1.75;;;;;;;3.84;100.00;98828.75;5153083;27;20141;-47
2022/11/16 03:19:35;;;;;;;2.78;1.60;;;;;;;3.93;100.00;98801.56;5152677;27;20057;-47
2022/11/16 03:22:09;;;;;;;4.68;2.25;;;;;;;3.85;100.00;98792.38;5152800;27;20183;-48
2022/11/16 03:24:36;;;;;;;2.60;1.85;;;;;;;4.11;100.00;98794.13;5153148;27;20508;-48
2022/11/16 03:27:09;;;;;;;2.30;2.10;;;;;;;3.87;100.00;98783.91;5152896;27;20418;-47
2022/11/16 03:29:41;;;;;;;2.80;2.15;;;;;;;4.18;100.00;98775.38;5152685;27;20051;-47
2022/11/16 03:32:15;;;;;;;2.33;2.15;;;;;;;3.88;100.00;98799.06;5152625;27;20484;-47
2022/11/16 03:34:48;;;;;;;2.53;2.13;;;;;;;4.11;100.00;98781.34;5152491;27;20047;-47
2022/11/16 03:37:15;;;;;;;7.65;2.22;;;;;;;3.82;100.00;98792.22;5152619;27;20057;-48
2022/11/16 03:39:43;;;;;;;2.00;1.90;;;;;;;3.86;100.00;98785.03;5151866;27;20454;-48
2022/11/16 03:42:13;;;;;;;1.48;1.38;;;;;;;3.96;100.00;98793.56;5152520;27;20103;-47
2022/11/16 03:44:41;;;;;;;1.60;1.50;;;;;;;4.11;100.00;98807.69;5152326;27;20043;-47
2022/11/16 03:47:11;;;;;;;1.90;1.15;;;;;;;3.92;100.00;98822.47;5152256;27;20137;-49
2022/11/16 03:49:37;;;;;;;1.20;1.13;;;;;;;4.08;100.00;98835.47;5152407;27;20058;-48
2022/11/16 03:52:04;;;;;;;1.30;1.20;;;;;;;4.07;100.00;98856.38;5152218;27;20054;-51
2022/11/16 03:54:30;;;;;;;1.13;1.02;;;;;;;3.81;100.00;98861.94;5152195;27;20046;-49
2022/11/16 03:56:56;;;;;;;1.65;1.13;;;;;;;3.82;100.00;98854.59;5152061;27;20137;-49
2022/11/16 03:59:23;;;;;;;0.80;0.80;;;;;;;3.89;100.00;98857.59;5152098;27;20054;-47
2022/11/16 04:01:49;;;;;;;5.03;0.98;;;;;;;3.63;100.00;98855.81;5151976;27;20103;-46
2022/11/16 04:29:09;;;;;;;0.52;0.52;;;;;;;3.35;100.00;98795.03;5150999;27;20050;-49
2022/11/16 04:39:48;;;;;;;0.93;0.88;;;;;;;3.03;100.00;98775.56;5151514;27;20057;-50
2022/11/16 04:42:17;;;;;;;1.05;0.70;;;;;;;2.66;100.00;98771.69;5151611;27;20051;-49
2022/11/16 04:47:40;;;;;;;0.60;0.60;;;;;;;2.78;100.00;98766.41;5107877;28;20078;-49
2022/11/16 04:50:06;;;;;;;0.80;0.70;;;;;;;2.42;100.00;98788.44;5140670;27;20133;-49
2022/11/16 04:52:39;;;;;;;0.60;0.60;;;;;;;2.42;100.00;98783.03;5150227;27;20091;-49
2022/11/16 04:55:06;;;;;;;0.73;0.70;;;;;;;2.69;100.00;98795.41;5151404;27;20055;-48
2022/11/16 04:57:32;;;;;;;1.35;0.70;;;;;;;2.67;100.00;98822.00;5151285;27;20070;-48
2022/11/16 04:59:59;;;;;;;0.40;0.40;;;;;;;2.47;100.00;98839.69;5151091;27;20050;-46
2022/11/16 05:02:25;;;;;;;0.50;0.50;;;;;;;3.02;100.00;98849.81;5151082;27;20046;-48
2022/11/16 05:04:51;;;;;;;3.08;0.77;;;;;;;2.59;100.00;98899.38;5151246;27;20047;-47
2022/11/16 05:07:18;;;;;;;9.02;0.80;;;;;;;2.60;100.00;98925.34;5151049;27;20057;-48
2022/11/16 05:09:46;;;;;;;0.57;0.57;;;;;;;2.84;100.00;98935.69;5151111;27;20074;-47
2022/11/16 05:12:14;;;;;;;0.65;0.65;;;;;;;2.68;100.00;98943.47;5150930;27;20043;-49
2022/11/16 05:14:41;;;;;;;1.35;0.68;;;;;;;2.87;100.00;98966.75;5150940;27;20450;-51
2022/11/16 05:17:08;;;;;;;0.50;0.50;;;;;;;2.64;100.00;98996.66;5151275;27;20068;-46
2022/11/16 05:22:27;;;;;;;0.40;0.40;;;;;;;2.39;100.00;98997.41;5113601;27;20050;-47
2022/11/16 05:24:54;;;;;;;0.63;0.63;;;;;;;2.70;100.00;99006.22;5151226;27;20512;-48
2022/11/16 05:27:22;;;;;;;0.80;0.80;;;;;;;2.44;100.00;99018.91;5150845;27;20401;-49
2022/11/16 05:29:49;;;;;;;0.70;0.70;;;;;;;2.48;100.00;99025.28;5151269;27;20050;-47
2022/11/16 05:32:16;;;;;;;0.60;0.60;;;;;;;2.36;100.00;99028.56;5150574;27;20612;-47
2022/11/16 05:34:42;;;;;;;0.70;0.70;;;;;;;2.30;100.00;99027.13;5151055;27;20047;-48
2022/11/16 05:37:10;;;;;;;0.70;0.70;;;;;;;2.25;100.00;99029.97;5150665;27;20051;-48
2022/11/16 05:39:41;;;;;;;0.75;0.75;;;;;;;2.54;100.00;99021.31;5150271;27;20420;-47
2022/11/16 05:42:09;;;;;;;3.05;0.98;;;;;;;2.16;100.00;99029.94;5150439;27;20530;-50
2022/11/16 05:44:35;;;;;;;1.95;0.80;;;;;;;2.48;100.00;99006.34;5150482;27;20046;-55
2022/11/16 05:47:02;;;;;;;2.17;1.17;;;;;;;2.67;100.00;99001.44;5150551;27;20047;-51
2022/11/16 05:49:28;;;;;;;2.25;1.23;;;;;;;2.98;100.00;99005.94;5150315;27;20269;-54
2022/11/16 05:51:54;;;;;;;1.00;0.90;;;;;;;2.62;100.00;99028.66;5150392;27;20137;-50
2022/11/16 05:54:23;;;;;;;0.85;0.85;;;;;;;2.61;100.00;99043.31;5150221;27;20463;-51
2022/11/16 05:56:50;;;;;;;1.15;1.05;;;;;;;2.67;100.00;99069.13;5150578;27;20058;-54
2022/11/16 05:59:19;;;;;;;2.63;1.27;;;;;;;2.97;100.00;99056.59;5150162;27;20180;-54
2022/11/16 06:01:45;;;;;;;0.70;0.70;;;;;;;2.74;100.00;99082.97;5150294;27;20057;-52
2022/11/16 06:04:12;;;;;;;3.53;0.90;;;;;;;2.74;100.00;99071.34;5152275;27;20052;-52
2022/11/16 06:06:39;;;;;;;9.20;1.77;;;;;;;2.67;100.00;99093.47;5153617;27;20055;-52
2022/11/16 06:09:05;;;;;;;0.98;0.98;;;;;;;2.39;100.00;99087.47;5153401;27;20160;-53
2022/11/16 06:11:32;;;;;;;7.75;3.17;;;;;;;2.53;100.00;99087.34;5153630;27;20137;-53
2022/11/16 06:13:59;;;;;;;9.02;2.35;;;;;;;2.83;100.00;99086.50;5153366;27;20057;-55
2022/11/16 06:16:26;;;;;;;3.50;1.40;;;;;;;2.67;100.00;99088.06;5153700;27;20051;-52
2022/11/16 06:18:52;;;;;;;11.02;1.67;;;;;;;3.10;100.00;99091.94;5153688;27;20043;-53
2022/11/16 06:21:19;;;;;;;1.95;1.00;;;;;;;2.93;100.00;99096.25;5153330;27;20424;-52
2022/11/16 06:23:45;;;;;;;4.63;1.27;;;;;;;3.01;100.00;99087.34;5153611;27;20118;-52
2022/11/16 06:26:12;;;;;;;2.97;1.50;;;;;;;2.85;100.00;99093.50;5153258;27;20062;-52
2022/11/16 06:28:39;;;;;;;2.60;0.98;;;;;;;2.84;100.00;99095.44;5153375;27;20050;-56
2022/11/16 06:31:05;;;;;;;3.60;1.67;;;;;;;2.87;100.00;99104.84;5153118;27;20051;-53
2022/11/16 06:33:32;;;;;;;4.03;1.50;;;;;;;2.97;100.00;99101.84;5153157;27;20138;-54
2022/11/16 06:35:59;;;;;;;1.00;1.00;;;;;;;2.45;100.00;99086.22;5153089;27;20532;-57
2022/11/16 06:38:26;;;;;;;2.60;1.27;;;;;;;2.81;100.00;99086.03;5153461;27;20405;-56
2022/11/16 06:40:55;;;;;;;1.50;1.40;;;;;;;2.65;100.00;99101.09;5153174;27;20053;-55
2022/11/16 06:43:22;;;;;;;2.58;1.52;;;;;;;2.41;100.00;99109.63;5152945;27;20046;-57
2022/11/16 06:45:49;;;;;;;2.00;1.85;;;;;;;2.33;100.00;99096.81;5153154;27;20092;-56
2022/11/16 06:48:16;;;;;;;2.25;1.67;;;;;;;2.41;100.00;99116.94;5153031;27;20095;-54
2022/11/16 06:50:43;;;;;;;4.20;2.03;;;;;;;2.52;100.00;99108.22;5153254;27;20054;-52
2022/11/16 06:53:12;;;;;;;2.47;2.28;;;;;;;2.66;100.00;99108.09;5152653;27;20057;-56
2022/11/16 06:55:39;;;;;;;2.80;2.17;;;;;;;2.51;100.00;99111.25;5153067;27;20050;-54
2022/11/16 06:58:05;;;;;;;2.97;2.47;;;;;;;2.28;100.00;99110.50;5152729;27;20159;-56
2022/11/16 07:00:31;;;;;;;2.33;2.13;;;;;;;2.43;100.00;99117.41;5152860;27;20047;-53
2022/11/16 07:02:57;;;;;;;4.43;2.75;;;;;;;2.47;100.00;99110.28;5152512;27;20150;-56
2022/11/16 07:05:24;;;;;;;3.70;1.80;;;;;;;2.48;100.00;99117.28;5152522;27;20050;-57
2022/11/16 07:07:54;;;;;;;2.35;2.15;;;;;;;2.51;100.00;99119.38;5152452;27;20046;-55
2022/11/16 07:10:20;;;;;;;2.63;2.40;;;;;;;2.61;100.00;99121.78;5152851;27;20152;-53
2022/11/16 07:12:47;;;;;;;2.42;2.22;;;;;;;2.50;100.00;99126.69;5152807;27;20102;-55
2022/11/16 07:15:13;;;;;;;23.38;11.90;;;;;;;2.26;100.00;99124.31;5151952;27;20051;-56
2022/11/16 07:17:40;;;;;;;11.07;6.95;;;;;;;2.41;100.00;99130.47;5152802;27;20047;-54
2022/11/16 07:20:07;;;;;;;11.07;6.00;;;;;;;2.28;100.00;99132.94;5152443;27;20043;-51
2022/11/16 07:22:33;;;;;;;13.63;9.60;;;;;;;2.61;100.00;99129.91;5152431;27;20053;-55
2022/11/16 07:25:00;;;;;;;11.75;6.50;;;;;;;2.16;100.00;99137.31;5152092;27;20512;-56
2022/11/16 07:27:26;;;;;;;18.80;8.80;;;;;;;2.04;100.00;99122.47;5152390;27;20089;-54
2022/11/16 07:29:53;;;;;;;13.07;7.40;;;;;;;2.27;100.00;99127.84;5152100;27;20054;-53
2022/11/16 07:32:19;;;;;;;11.13;5.63;;;;;;;2.14;100.00;99132.25;5152271;27;20138;-54
2022/11/16 07:34:45;;;;;;;14.13;8.52;;;;;;;1.88;100.00;99134.78;5152633;27;20093;-56
2022/11/16 07:37:11;;;;;;;15.43;7.80;;;;;;;1.99;100.00;99128.00;5152778;27;20502;-57
2022/11/16 07:39:38;;;;;;;17.25;10.38;;;;;;;2.03;100.00;99128.16;5152557;27;20150;-59
2022/11/16 07:42:10;;;;;;;18.02;12.35;;;;;;;2.00;100.00;99137.72;5152141;27;20050;-58
2022/11/16 07:44:36;;;;;;;3.72;3.42;;;;;;;1.67;100.00;99128.25;5152564;27;20146;-56
2022/11/16 07:47:03;;;;;;;13.40;9.48;;;;;;;1.63;100.00;99111.84;5152252;27;20054;-55
2022/11/16 07:49:35;;;;;;;6.20;4.88;;;;;;;1.73;100.00;99092.69;5152411;27;20050;-54
2022/11/16 07:52:02;;;;;;;13.15;9.93;;;;;;;1.95;100.00;99091.88;5151951;27;20480;-53
2022/11/16 07:54:28;;;;;;;17.92;13.23;;;;;;;1.87;100.00;99082.63;5152221;27;20417;-53
2022/11/16 07:56:54;;;;;;;9.50;7.55;;;;;;;1.62;100.00;99085.94;5151870;27;20137;-56
2022/11/16 07:59:21;;;;;;;27.23;17.85;;;;;;;1.52;100.00;99086.97;5151978;27;20050;-55
2022/11/16 08:01:48;;;;;;;9.98;6.43;;;;;;;1.53;100.00;99077.75;5151832;27;20145;-55
2022/11/16 08:04:16;;;;;;;8.60;5.88;;;;;;;1.82;100.00;99092.75;5152000;27;20096;-58
2022/11/16 08:06:43;;;;;;;11.38;8.05;;;;;;;1.62;100.00;99096.75;5151977;27;20054;-54
2022/11/16 08:09:09;;;;;;;24.60;16.38;;;;;;;1.86;100.00;99102.63;5151932;27;20073;-54
2022/11/16 08:11:35;;;;;;;31.23;20.70;;;;;;;2.03;100.00;99099.25;5151936;27;20060;-55
2022/11/16 08:14:01;;;;;;;29.08;19.10;;;;;;;2.12;100.00;99102.00;5151590;27;20047;-56
2022/11/16 08:16:29;;;;;;;16.20;12.50;;;;;;;1.87;100.00;99108.84;5152022;27;20042;-58
2022/11/16 08:18:55;;;;;;;11.57;5.85;;;;;;;1.72;100.00;99120.03;5151721;27;20051;-57
2022/11/16 08:21:21;;;;;;;6.50;5.43;;;;;;;1.67;100.00;99120.13;5151627;27;20057;-54
2022/11/16 08:23:47;;;;;;;11.10;7.60;;;;;;;1.77;100.00;99120.72;5151483;27;20402;-54
2022/11/16 08:26:15;;;;;;;12.90;10.00;;;;;;;1.61;100.00;99124.88;5151088;27;20043;-54
2022/11/16 08:28:43;;;;;;;7.50;5.18;;;;;;;1.59;100.00;99117.06;5150969;27;20079;-54
2022/11/16 08:31:12;;;;;;;17.88;9.57;;;;;;;1.75;100.00;99114.81;5151827;27;20051;-57
2022/11/16 08:33:38;;;;;;;12.70;7.38;;;;;;;1.84;100.00;99133.78;5151464;27;20409;-55
2022/11/16 08:36:06;;;;;;;31.30;14.80;;;;;;;1.62;100.00;99140.78;5151631;27;20047;-53
2022/11/16 08:38:32;;;;;;;25.52;13.43;;;;;;;1.52;100.00;99148.31;5151764;27;20046;-56
2022/11/16 08:40:59;;;;;;;15.30;9.88;;;;;;;1.66;100.00;99151.78;5151316;27;20046;-55
2022/11/16 08:43:25;;;;;;;18.25;10.25;;;;;;;1.79;100.00;99140.09;5151535;27;20420;-55
2022/11/16 08:45:52;;;;;;;8.50;5.88;;;;;;;1.68;100.00;99146.88;5151291;27;20047;-56
2022/11/16 08:48:19;;;;;;;32.88;18.38;;;;;;;1.57;100.00;99145.53;5151571;27;20394;-55
2022/11/16 08:50:46;;;;;;;20.00;12.43;;;;;;;1.77;100.00;99147.75;5151318;27;20054;-56
2022/11/16 08:53:14;;;;;;;12.35;6.22;;;;;;;2.00;100.00;99172.06;5151514;27;20137;-58
2022/11/16 08:55:40;;;;;;;7.45;2.95;;;;;;;1.52;100.00;99178.03;5151054;27;20050;-54
2022/11/16 08:58:07;;;;;;;5.78;3.60;;;;;;;1.58;100.00;99184.94;5151666;27;20098;-56
2022/11/16 09:00:33;;;;;;;6.28;3.58;;;;;;;1.58;100.00;99209.25;5151130;27;20145;-56
2022/11/16 09:02:59;;;;;;;9.73;5.40;;;;;;;1.94;100.00;99184.13;5150964;27;20053;-57
2022/11/16 09:05:26;;;;;;;5.10;4.38;;;;;;;1.99;100.00;99189.38;5151401;27;20089;-55
2022/11/16 09:07:53;;;;;;;3.90;2.85;;;;;;;1.93;100.00;99199.53;5151211;27;20057;-58
2022/11/16 09:10:21;;;;;;;3.53;2.80;;;;;;;1.53;100.00;99196.63;5151627;27;20047;-58
2022/11/16 09:12:48;;;;;;;4.57;1.92;;;;;;;1.47;100.00;99194.38;5151220;27;20502;-55
2022/11/16 09:15:15;;;;;;;3.50;2.65;;;;;;;1.60;100.00;99183.53;5151140;27;20140;-56
2022/11/16 09:17:41;;;;;;;5.05;2.85;;;;;;;1.65;100.00;99177.22;5151408;27;20138;-54
2022/11/16 09:20:08;;;;;;;3.22;2.63;;;;;;;1.67;100.00;99179.59;5151050;27;20133;-53
2022/11/16 09:22:34;;;;;;;5.63;3.50;;;;;;;1.44;100.00;99160.66;5150851;27;20057;-54
2022/11/16 09:25:01;;;;;;;9.98;5.95;;;;;;;1.68;100.00;99157.69;5151051;27;20055;-55
2022/11/16 09:27:28;;;;;;;4.40;3.40;;;;;;;1.60;100.00;99131.38;5151048;27;20050;-53
2022/11/16 09:29:55;;;;;;;3.15;2.60;;;;;;;1.82;100.00;99144.91;5151147;27;20097;-57
2022/11/16 09:32:21;;;;;;;4.70;2.70;;;;;;;1.91;100.00;99111.75;5151025;27;20143;-55
2022/11/16 09:34:47;;;;;;;4.25;2.90;;;;;;;1.82;100.00;99080.03;5150706;27;20179;-54
2022/11/16 09:37:14;;;;;;;2.92;2.60;;;;;;;1.98;100.00;99044.50;5150822;27;20078;-54
2022/11/16 09:39:40;;;;;;;3.40;2.40;;;;;;;1.95;100.00;99002.66;5153587;27;20046;-57
2022/11/16 09:42:24;;;;;;;4.00;2.78;;;;;;;2.14;100.00;98945.63;5154534;27;20418;-57
2022/11/16 09:44:59;;;;;;;4.07;2.72;;;;;;;1.94;100.00;98871.31;5154144;27;20053;-56
2022/11/16 09:47:39;;;;;;;4.38;2.47;;;;;;;1.75;100.00;98866.16;5154300;27;20099;-53
2022/11/16 09:50:12;;;;;;;3.90;2.30;;;;;;;1.99;100.00;98895.47;5154273;27;20194;-54
2022/11/16 09:52:42;;;;;;;4.22;2.85;;;;;;;1.79;100.00;98942.78;5153977;27;20082;-54
2022/11/16 09:55:22;;;;;;;3.78;2.45;;;;;;;1.86;100.00;98983.69;5154424;27;20398;-53
2022/11/16 09:57:51;;;;;;;5.95;2.67;;;;;;;1.44;100.00;99049.91;5153916;27;20047;-56
2022/11/16 10:00:21;;;;;;;4.72;2.42;;;;;;;1.69;100.00;99107.13;5154137;27;20089;-56
2022/11/16 10:02:57;;;;;;;2.05;1.88;;;;;;;1.86;100.00;99123.47;5154065;27;20519;-53
2022/11/16 10:05:27;;;;;;;3.47;2.53;;;;;;;1.49;100.00;99127.31;5154137;27;20046;-54
2022/11/16 10:08:02;;;;;;;4.70;2.92;;;;;;;1.75;100.00;99166.16;5153834;27;20043;-54
2022/11/16 10:10:36;;;;;;;3.10;2.17;;;;;;;1.73;100.00;99165.66;5154003;27;20174;-55
2022/11/16 10:13:18;;;;;;;3.45;2.25;;;;;;;1.52;100.00;99172.63;5153739;27;20058;-54
2022/11/16 10:15:55;;;;;;;3.30;2.42;;;;;;;1.52;100.00;99162.63;5154131;27;20085;-53
2022/11/16 10:18:33;;;;;;;3.22;2.85;;;;;;;1.41;100.00;99151.25;5153720;27;20051;-53
2022/11/16 10:21:12;;;;;;;3.83;2.47;;;;;;;1.46;100.00;99144.94;5153654;27;20181;-55
2022/11/16 10:23:57;;;;;;;3.47;2.40;;;;;;;1.40;100.00;99082.13;5153700;27;20061;-54
2022/11/16 10:26:30;;;;;;;3.35;1.80;;;;;;;1.45;100.00;99029.88;5153801;27;20049;-54
2022/11/16 10:29:13;;;;;;;3.53;2.60;;;;;;;1.46;100.00;98974.75;5153429;27;20061;-55
2022/11/16 10:31:55;;;;;;;2.75;2.42;;;;;;;1.26;100.00;98922.03;5153652;27;20524;-53
2022/11/16 10:34:25;;;;;;;3.10;2.03;;;;;;;1.45;100.00;98931.84;5153424;27;20047;-53
2022/11/16 10:36:55;;;;;;;5.50;2.55;;;;;;;1.51;100.00;98854.97;5153312;27;20042;-57
2022/11/16 10:39:24;;;;;;;4.28;2.25;;;;;;;1.36;100.00;98781.31;5153419;27;20053;-58
2022/11/16 10:41:51;;;;;;;3.80;2.92;;;;;;;1.59;100.00;98787.41;5153025;27;20054;-56
2022/11/16 10:44:24;;;;;;;3.40;2.38;;;;;;;1.49;100.00;98768.81;5153475;27;20078;-55
2022/11/16 10:47:00;;;;;;;4.50;2.42;;;;;;;1.76;100.00;98748.03;5152993;27;20054;-55
2022/11/16 10:49:34;;;;;;;3.28;2.00;;;;;;;1.84;100.00;98795.91;5152641;27;20115;-54
2022/11/16 10:52:00;;;;;;;3.93;2.87;;;;;;;1.75;100.00;98757.25;5152896;27;20058;-57
2022/11/16 10:54:26;;;;;;;2.72;1.90;;;;;;;1.91;100.00;98703.53;5153500;27;20078;-56
2022/11/16 10:57:01;;;;;;;6.85;3.00;;;;;;;1.53;100.00;98617.69;5153092;27;20131;-57
2022/11/16 10:59:39;;;;;;;3.60;2.55;;;;;;;1.44;100.00;98622.31;5152966;27;20432;-56
2022/11/16 11:02:27;;;;;;;4.18;2.90;;;;;;;1.61;100.00;98630.41;5153206;27;20424;-54
2022/11/16 11:05:01;;;;;;;5.10;2.72;;;;;;;1.78;100.00;98614.19;5152767;27;20050;-55
2022/11/16 11:07:31;;;;;;;3.85;2.03;;;;;;;1.64;100.00;98625.16;5153088;27;20042;-55
2022/11/16 11:09:57;;;;;;;5.13;3.00;;;;;;;1.62;100.00;98580.66;5152720;27;20596;-55
2022/11/16 11:12:37;;;;;;;6.57;2.88;;;;;;;1.75;100.00;98589.72;5152781;27;20042;-56
2022/11/16 11:15:18;;;;;;;3.88;1.95;;;;;;;1.78;100.00;98543.91;5152599;27;20074;-58
2022/11/16 11:17:46;;;;;;;3.78;2.58;;;;;;;1.77;100.00;98561.25;5152822;27;20051;-55
2022/11/16 11:20:22;;;;;;;4.57;2.35;;;;;;;1.53;100.00;98587.97;5152444;27;20135;-57
2022/11/16 11:22:53;;;;;;;3.67;2.33;;;;;;;1.23;100.00;98632.94;5152491;27;20505;-57
2022/11/16 11:25:22;;;;;;;3.92;2.33;;;;;;;1.35;100.00;98722.22;5152677;27;20043;-54
2022/11/16 11:27:50;;;;;;;3.97;2.50;;;;;;;1.23;100.00;98709.31;5152369;27;20100;-58
2022/11/16 11:30:20;;;;;;;3.22;2.28;;;;;;;1.05;100.00;98737.38;5152339;27;20061;-56
2022/11/16 11:32:47;;;;;;;3.33;2.13;;;;;;;0.89;100.00;98756.69;5152525;27;20047;-57
2022/11/16 11:35:23;;;;;;;3.55;2.15;;;;;;;1.07;100.00;98818.88;5152542;27;20133;-55
2022/11/16 11:37:52;;;;;;;4.55;2.45;;;;;;;0.96;100.00;98833.72;5152340;27;20051;-53
2022/11/16 11:40:21;;;;;;;3.15;2.20;;;;;;;1.09;100.00;98862.53;5152194;27;20417;-54
2022/11/16 11:42:57;;;;;;;3.58;2.70;;;;;;;1.22;100.00;98883.25;5152547;27;20072;-52
2022/11/16 11:45:31;;;;;;;3.72;2.15;;;;;;;1.24;100.00;98858.66;5152269;27;20083;-53
2022/11/16 11:48:01;;;;;;;3.38;2.50;;;;;;;1.62;100.00;98859.75;5152369;27;20059;-56
2022/11/16 11:50:38;;;;;;;3.15;2.10;;;;;;;1.52;100.00;98795.19;5151844;27;20054;-55
2022/11/16 11:53:11;;;;;;;3.80;2.17;;;;;;;1.47;100.00;98808.88;5152656;27;20137;-53
2022/11/16 11:55:38;;;;;;;3.65;2.10;;;;;;;1.50;100.00;98808.25;5151967;27;20414;-54
2022/11/16 11:58:10;;;;;;;4.03;2.00;;;;;;;1.72;100.00;98793.81;5151953;27;20138;-57
2022/11/16 12:00:46;;;;;;;3.30;2.17;;;;;;;1.50;100.00;98759.63;5151903;27;20050;-56
2022/11/16 12:03:48;;;;;;;3.33;1.90;;;;;;;1.57;100.00;98813.19;5152144;27;20046;-55
2022/11/16 12:06:21;;;;;;;2.83;1.65;;;;;;;1.52;100.00;98806.00;5149566;27;20043;-56
2022/11/16 12:09:15;;;;;;;2.95;1.70;;;;;;;1.45;100.00;98778.66;5151989;27;20051;-54
2022/11/16 12:11:56;;;;;;;1.63;1.43;;;;;;;1.10;100.00;98748.03;5149012;27;20054;-54
2022/11/16 12:14:40;;;;;;;2.35;1.33;;;;;;;1.09;100.00;98714.06;5152268;27;20047;-53
2022/11/16 12:17:15;;;;;;;2.17;1.48;;;;;;;0.96;100.00;98675.28;5151771;27;20424;-56
2022/11/16 12:20:06;;;;;;;4.32;1.40;;;;;;;1.06;100.00;98668.78;5152181;27;20047;-54
2022/11/16 12:22:55;;;;;;;3.35;1.75;;;;;;;1.07;100.00;98714.38;5151589;27;20051;-53
2022/11/16 12:25:25;;;;;;;3.42;1.88;;;;;;;0.93;100.00;98702.88;5151663;27;20104;-52
2022/11/16 12:28:08;;;;;;;1.30;1.20;;;;;;;1.10;100.00;98683.25;5151713;27;20042;-56